createdAt,value
2022-11-27T00:01:54.870Z,10.00
2022-11-27T00:03:56.891Z,10.00
2022-11-27T00:05:58.742Z,10.00
2022-11-27T00:08:00.558Z,10.00
2022-11-27T00:10:02.314Z,10.00
2022-11-27T00:12:04.228Z,10.00
2022-11-27T00:14:06.413Z,10.00
2022-11-27T00:16:08.560Z,10.00
2022-11-27T00:18:10.433Z,9.90
2022-11-27T00:20:12.826Z,9.90
2022-11-27T00:22:14.627Z,9.90
2022-11-27T00:24:16.325Z,9.90
2022-11-27T00:26:18.417Z,9.90
2022-11-27T00:28:21.569Z,9.90
2022-11-27T00:30:23.391Z,9.90
2022-11-27T00:32:25.121Z,9.90
2022-11-27T00:34:26.845Z,9.90
2022-11-27T00:36:29.564Z,9.90
2022-11-27T00:38:34.687Z,9.80
2022-11-27T00:40:40.231Z,9.80
2022-11-27T00:42:41.962Z,9.80
2022-11-27T00:44:43.842Z,9.80
2022-11-27T00:46:45.735Z,9.80
2022-11-27T00:48:47.698Z,9.80
2022-11-27T00:50:49.342Z,9.80
2022-11-27T00:52:50.977Z,9.80
2022-11-27T00:54:52.605Z,9.80
2022-11-27T00:56:54.231Z,9.80
2022-11-27T00:58:56.361Z,9.70
2022-11-27T01:00:59.337Z,9.70
2022-11-27T01:03:01.022Z,9.70
2022-11-27T01:05:02.689Z,9.70
2022-11-27T01:07:04.405Z,9.70
2022-11-27T01:09:06.471Z,9.70
2022-11-27T01:11:12.987Z,9.70
2022-11-27T01:13:14.652Z,9.70
2022-11-27T01:15:16.421Z,9.70
2022-11-27T01:17:20.384Z,9.60
2022-11-27T01:19:22.112Z,9.60
2022-11-27T01:21:23.855Z,9.60
2022-11-27T01:23:26.166Z,9.60
2022-11-27T01:25:27.795Z,9.60
2022-11-27T01:27:29.499Z,9.60
2022-11-27T01:29:31.173Z,9.60
2022-11-27T01:31:33.516Z,9.60
2022-11-27T01:33:35.519Z,9.60
2022-11-27T01:35:37.230Z,9.60
2022-11-27T01:37:38.829Z,9.60
2022-11-27T01:39:40.504Z,9.60
2022-11-27T01:41:42.292Z,9.50
2022-11-27T01:43:43.888Z,9.50
2022-11-27T01:45:45.797Z,9.50
2022-11-27T01:47:50.215Z,9.50
2022-11-27T01:49:53.626Z,9.50
2022-11-27T01:52:15.136Z,9.50
2022-11-27T01:54:17.130Z,9.50
2022-11-27T01:56:19.472Z,9.50
2022-11-27T01:58:28.595Z,9.50
2022-11-27T02:00:30.379Z,9.50
2022-11-27T02:02:32.043Z,9.40
2022-11-27T02:04:33.775Z,9.40
2022-11-27T02:06:35.398Z,9.40
2022-11-27T02:08:37.743Z,9.40
2022-11-27T02:10:53.684Z,9.40
2022-11-27T02:12:59.335Z,9.40
2022-11-27T02:15:05.257Z,9.40
2022-11-27T02:17:15.543Z,9.40
2022-11-27T02:19:23.367Z,9.30
2022-11-27T02:21:34.146Z,9.30
2022-11-27T02:23:47.555Z,9.40
2022-11-27T02:26:08.052Z,9.30
2022-11-27T02:28:09.657Z,9.30
2022-11-27T02:30:11.767Z,9.30
2022-11-27T02:32:39.847Z,9.30
2022-11-27T02:34:50.681Z,9.30
2022-11-27T02:37:01.153Z,9.30
2022-11-27T02:39:04.561Z,9.30
2022-11-27T02:41:12.681Z,9.30
2022-11-27T02:43:40.536Z,9.30
2022-11-27T02:45:44.414Z,9.30
2022-11-27T02:47:46.937Z,9.30
2022-11-27T02:49:49.464Z,9.20
2022-11-27T02:51:53.456Z,9.30
2022-11-27T02:53:57.499Z,9.30
2022-11-27T02:55:59.885Z,9.20
2022-11-27T02:58:03.415Z,9.20
2022-11-27T03:00:05.859Z,9.20
2022-11-27T03:02:09.815Z,9.20
2022-11-27T03:04:15.432Z,9.30
2022-11-27T03:06:19.182Z,9.30
2022-11-27T03:08:24.643Z,9.20
2022-11-27T03:10:36.635Z,9.20
2022-11-27T03:12:38.666Z,9.20
2022-11-27T03:14:41.718Z,9.20
2022-11-27T03:16:48.307Z,9.20
2022-11-27T03:19:08.786Z,9.20
2022-11-27T03:21:18.312Z,9.20
2022-11-27T03:23:19.968Z,9.20
2022-11-27T03:25:22.131Z,9.20
2022-11-27T03:27:29.478Z,9.20
2022-11-27T03:29:37.128Z,9.10
2022-11-27T03:31:39.038Z,9.10
2022-11-27T03:33:40.702Z,9.10
2022-11-27T03:35:42.307Z,9.10
2022-11-27T03:37:44.271Z,9.10
2022-11-27T03:39:46.007Z,9.10
2022-11-27T03:41:57.849Z,9.10
2022-11-27T03:44:02.291Z,9.10
2022-11-27T03:46:08.837Z,9.10
2022-11-27T03:48:16.459Z,9.10
2022-11-27T03:50:23.954Z,9.10
2022-11-27T03:52:34.791Z,9.10
2022-11-27T03:54:55.239Z,9.10
2022-11-27T03:57:02.815Z,9.10
2022-11-27T03:59:08.726Z,9.10
2022-11-27T04:01:12.357Z,9.10
2022-11-27T04:03:14.070Z,9.00
2022-11-27T04:05:16.155Z,9.10
2022-11-27T04:07:18.060Z,9.10
2022-11-27T04:09:19.811Z,9.10
2022-11-27T04:11:21.455Z,9.00
2022-11-27T04:13:23.075Z,9.00
2022-11-27T04:15:24.735Z,9.00
2022-11-27T04:17:26.599Z,9.00
2022-11-27T04:19:28.401Z,9.00
2022-11-27T04:21:30.011Z,9.00
2022-11-27T04:23:31.942Z,9.00
2022-11-27T04:25:33.596Z,9.00
2022-11-27T04:27:35.347Z,9.00
2022-11-27T04:29:37.623Z,9.00
2022-11-27T04:31:39.291Z,9.00
2022-11-27T04:33:40.909Z,9.00
2022-11-27T04:35:42.543Z,9.00
2022-11-27T04:37:44.233Z,8.90
2022-11-27T04:39:45.938Z,8.90
2022-11-27T04:41:47.703Z,8.90
2022-11-27T04:43:49.350Z,8.90
2022-11-27T04:45:51.007Z,8.90
2022-11-27T04:47:52.689Z,8.90
2022-11-27T04:49:54.350Z,8.90
2022-11-27T04:51:56.080Z,8.90
2022-11-27T04:53:57.968Z,8.90
2022-11-27T04:55:59.580Z,8.90
2022-11-27T04:58:01.271Z,8.90
2022-11-27T05:00:05.330Z,8.90
2022-11-27T05:02:06.978Z,8.90
2022-11-27T05:04:08.664Z,8.80
2022-11-27T05:06:10.363Z,8.80
2022-11-27T05:08:12.065Z,8.80
2022-11-27T05:10:13.687Z,8.80
2022-11-27T05:12:15.334Z,8.80
2022-11-27T05:14:18.031Z,8.80
2022-11-27T05:16:19.953Z,8.70
2022-11-27T05:18:21.781Z,8.80
2022-11-27T05:20:23.429Z,8.80
2022-11-27T05:22:25.075Z,8.70
2022-11-27T05:24:27.877Z,8.70
2022-11-27T05:26:29.526Z,8.80
2022-11-27T05:28:31.186Z,8.70
2022-11-27T05:30:32.980Z,8.70
2022-11-27T05:32:34.601Z,8.70
2022-11-27T05:34:36.253Z,8.70
2022-11-27T05:36:38.011Z,8.70
2022-11-27T05:38:40.021Z,8.70
2022-11-27T05:40:41.652Z,8.60
2022-11-27T05:42:43.293Z,8.70
2022-11-27T05:44:44.905Z,8.60
2022-11-27T05:46:46.651Z,8.70
2022-11-27T05:48:48.489Z,8.70
2022-11-27T05:50:50.156Z,8.60
2022-11-27T05:52:51.807Z,8.70
2022-11-27T05:54:54.953Z,8.70
2022-11-27T05:56:56.618Z,8.70
2022-11-27T05:58:58.284Z,8.70
2022-11-27T06:00:59.980Z,8.70
2022-11-27T06:03:01.833Z,8.70
2022-11-27T06:05:03.867Z,8.70
2022-11-27T06:07:05.523Z,8.70
2022-11-27T06:09:12.412Z,8.70
2022-11-27T06:11:16.570Z,8.70
2022-11-27T06:13:18.318Z,8.70
2022-11-27T06:15:19.947Z,8.70
2022-11-27T06:17:21.632Z,8.70
2022-11-27T06:19:23.451Z,8.70
2022-11-27T06:21:25.218Z,8.70
2022-11-27T06:23:26.879Z,8.70
2022-11-27T06:25:28.552Z,8.80
2022-11-27T06:27:33.006Z,8.70
2022-11-27T06:29:34.695Z,8.70
2022-11-27T06:31:36.630Z,8.80
2022-11-27T06:33:38.472Z,8.70
2022-11-27T06:35:40.136Z,8.70
2022-11-27T06:37:41.784Z,8.70
2022-11-27T06:39:43.526Z,8.70
2022-11-27T06:41:45.133Z,8.70
2022-11-27T06:43:47.178Z,8.70
2022-11-27T06:45:55.943Z,8.70
2022-11-27T06:47:58.483Z,8.70
2022-11-27T06:50:00.137Z,8.70
2022-11-27T06:52:01.754Z,8.70
2022-11-27T06:54:03.537Z,8.70
2022-11-27T06:56:06.778Z,8.70
2022-11-27T06:58:08.464Z,8.70
2022-11-27T07:00:10.324Z,8.70
2022-11-27T07:02:14.010Z,8.70
2022-11-27T07:04:16.247Z,8.70
2022-11-27T07:06:19.533Z,8.70
2022-11-27T07:08:22.271Z,8.70
2022-11-27T07:10:23.913Z,8.80
2022-11-27T07:12:25.540Z,8.80
2022-11-27T07:14:27.194Z,8.80
2022-11-27T07:16:29.820Z,8.80
2022-11-27T07:18:34.581Z,8.90
2022-11-27T07:20:36.454Z,8.90
2022-11-27T07:22:38.095Z,8.90
2022-11-27T07:24:40.024Z,8.90
2022-11-27T07:26:42.062Z,8.90
2022-11-27T07:28:44.147Z,8.90
2022-11-27T07:30:45.864Z,8.90
2022-11-27T07:32:47.602Z,8.90
2022-11-27T07:34:49.244Z,8.90
2022-11-27T07:36:50.963Z,9.00
2022-11-27T07:38:52.889Z,9.00
2022-11-27T07:40:54.529Z,9.00
2022-11-27T07:42:58.310Z,9.00
2022-11-27T07:44:59.931Z,9.00
2022-11-27T07:47:01.657Z,9.00
2022-11-27T07:49:03.847Z,9.00
2022-11-27T07:51:06.072Z,9.00
2022-11-27T07:53:07.774Z,9.10
2022-11-27T07:55:09.695Z,9.10
2022-11-27T07:57:11.371Z,9.10
2022-11-27T07:59:13.146Z,9.10
2022-11-27T08:01:16.727Z,9.10
2022-11-27T08:03:18.444Z,9.10
2022-11-27T08:05:20.238Z,9.10
2022-11-27T08:07:26.544Z,9.10
2022-11-27T08:09:29.099Z,9.20
2022-11-27T08:11:32.901Z,9.20
2022-11-27T08:13:34.622Z,9.20
2022-11-27T08:15:36.712Z,9.20
2022-11-27T08:17:39.232Z,9.30
2022-11-27T08:19:40.986Z,9.30
2022-11-27T08:21:42.702Z,9.30
2022-11-27T08:23:44.504Z,9.30
2022-11-27T08:25:46.123Z,9.40
2022-11-27T08:27:48.418Z,9.40
2022-11-27T08:29:50.117Z,9.40
2022-11-27T08:31:51.930Z,9.40
2022-11-27T08:33:53.709Z,9.40
2022-11-27T08:35:55.618Z,9.50
2022-11-27T08:37:57.705Z,9.50
2022-11-27T08:39:59.384Z,9.50
2022-11-27T08:42:01.102Z,9.60
2022-11-27T08:44:06.712Z,9.60
2022-11-27T08:46:11.292Z,9.60
2022-11-27T08:48:12.929Z,9.70
2022-11-27T08:50:14.686Z,9.70
2022-11-27T08:52:16.419Z,9.80
2022-11-27T08:54:18.076Z,9.80
2022-11-27T08:56:21.494Z,9.90
2022-11-27T08:58:23.213Z,9.90
2022-11-27T09:00:27.978Z,9.90
2022-11-27T09:02:30.007Z,10.00
2022-11-27T09:04:31.705Z,10.00
2022-11-27T09:06:34.804Z,10.00
2022-11-27T09:08:36.938Z,10.10
2022-11-27T09:10:38.835Z,10.10
2022-11-27T09:12:43.516Z,10.10
2022-11-27T09:14:45.483Z,10.10
2022-11-27T09:16:47.255Z,10.10
2022-11-27T09:18:50.448Z,10.20
2022-11-27T09:20:55.051Z,10.20
2022-11-27T09:22:56.828Z,10.20
2022-11-27T09:24:58.539Z,10.20
2022-11-27T09:27:00.259Z,10.20
2022-11-27T09:29:02.015Z,10.30
2022-11-27T09:31:04.800Z,10.30
2022-11-27T09:33:06.623Z,10.30
2022-11-27T09:35:08.537Z,10.40
2022-11-27T09:37:10.282Z,10.40
2022-11-27T09:39:13.751Z,10.40
2022-11-27T09:41:36.548Z,10.40
2022-11-27T09:43:49.446Z,10.50
2022-11-27T09:45:55.167Z,10.50
2022-11-27T09:48:01.302Z,10.50
2022-11-27T09:50:07.311Z,10.60
2022-11-27T09:52:11.830Z,10.60
2022-11-27T09:54:17.573Z,10.60
2022-11-27T09:56:20.281Z,10.70
2022-11-27T09:58:25.442Z,10.70
2022-11-27T10:00:27.402Z,10.80
2022-11-27T10:02:31.886Z,10.80
2022-11-27T10:04:57.817Z,10.80
2022-11-27T10:07:04.977Z,10.80
2022-11-27T10:09:06.766Z,10.90
2022-11-27T10:11:11.457Z,10.90
2022-11-27T10:13:16.213Z,10.90
2022-11-27T10:15:24.088Z,11.00
2022-11-27T10:17:32.603Z,11.00
2022-11-27T10:19:46.639Z,11.10
2022-11-27T10:21:52.313Z,11.10
2022-11-27T10:23:54.075Z,11.10
2022-11-27T10:25:57.913Z,11.20
2022-11-27T10:28:06.388Z,11.30
2022-11-27T10:30:18.344Z,11.30
2022-11-27T10:32:53.650Z,11.30
2022-11-27T10:34:45.476Z,11.40
2022-11-27T10:36:49.679Z,11.50
2022-11-27T10:38:52.560Z,11.50
2022-11-27T10:41:05.599Z,11.50
2022-11-27T10:43:22.249Z,11.60
2022-11-27T10:45:29.822Z,11.60
2022-11-27T10:47:33.868Z,11.60
2022-11-27T10:49:37.163Z,11.70
2022-11-27T10:51:39.620Z,11.70
2022-11-27T10:53:42.806Z,11.80
2022-11-27T10:56:02.909Z,11.80
2022-11-27T10:58:34.303Z,11.80
2022-11-27T11:00:37.652Z,11.80
2022-11-27T11:02:41.706Z,11.90
2022-11-27T11:04:43.554Z,11.90
2022-11-27T11:06:46.849Z,12.00
2022-11-27T11:08:49.096Z,12.00
2022-11-27T11:10:50.865Z,12.00
2022-11-27T11:13:11.308Z,12.10
2022-11-27T11:15:13.606Z,12.20
2022-11-27T11:17:17.457Z,12.20
2022-11-27T11:19:23.317Z,12.30
2022-11-27T11:21:33.933Z,12.30
2022-11-27T11:23:36.989Z,12.40
2022-11-27T11:25:38.825Z,12.40
2022-11-27T11:27:43.076Z,12.50
2022-11-27T11:29:55.504Z,12.60
2022-11-27T11:32:00.862Z,12.70
2022-11-27T11:34:23.008Z,12.70
2022-11-27T11:36:24.847Z,12.70
2022-11-27T11:38:32.469Z,12.80
2022-11-27T11:40:35.818Z,12.90
2022-11-27T11:42:38.259Z,12.90
2022-11-27T11:44:40.700Z,13.00
2022-11-27T11:46:50.788Z,13.00
2022-11-27T11:48:53.949Z,13.00
2022-11-27T11:51:04.214Z,13.00
2022-11-27T11:53:16.929Z,13.10
2022-11-27T11:55:24.688Z,13.10
2022-11-27T11:57:32.345Z,13.10
2022-11-27T11:59:50.266Z,13.20
2022-11-27T12:02:04.268Z,13.20
2022-11-27T12:04:06.125Z,13.20
2022-11-27T12:06:40.489Z,13.30
2022-11-27T12:08:42.324Z,13.30
2022-11-27T12:11:02.528Z,13.30
2022-11-27T12:13:07.226Z,13.30
2022-11-27T12:15:20.913Z,13.30
2022-11-27T12:17:36.268Z,13.30
2022-11-27T12:19:56.327Z,13.30
2022-11-27T12:22:13.345Z,13.30
2022-11-27T12:24:15.132Z,13.30
2022-11-27T12:26:35.400Z,13.30
2022-11-27T12:28:56.012Z,13.40
2022-11-27T12:31:20.898Z,13.40
2022-11-27T12:33:41.235Z,13.40
2022-11-27T12:36:01.829Z,13.50
2022-11-27T12:38:06.431Z,13.50
2022-11-27T12:40:26.994Z,13.50
2022-11-27T12:42:51.486Z,13.60
2022-11-27T12:44:53.257Z,13.70
2022-11-27T12:47:04.786Z,13.70
2022-11-27T12:49:15.219Z,13.80
2022-11-27T12:51:31.609Z,13.80
2022-11-27T12:53:36.260Z,13.80
2022-11-27T12:55:39.469Z,13.90
2022-11-27T12:57:44.163Z,13.90
2022-11-27T12:59:48.548Z,13.90
2022-11-27T13:01:54.891Z,13.90
2022-11-27T13:04:06.117Z,13.90
2022-11-27T13:06:14.149Z,13.90
2022-11-27T13:08:22.011Z,13.90
2022-11-27T13:10:36.270Z,13.90
2022-11-27T13:12:42.771Z,13.90
2022-11-27T13:14:55.316Z,13.90
2022-11-27T13:17:01.531Z,13.90
2022-11-27T13:19:12.688Z,13.90
2022-11-27T13:21:26.164Z,13.90
2022-11-27T13:23:32.062Z,14.00
2022-11-27T13:25:36.348Z,13.90
2022-11-27T13:27:38.850Z,14.00
2022-11-27T13:29:49.813Z,14.00
2022-11-27T13:31:54.499Z,14.00
2022-11-27T13:34:01.289Z,14.00
2022-11-27T13:36:03.874Z,14.00
2022-11-27T13:38:12.036Z,14.00
2022-11-27T13:40:21.051Z,14.00
2022-11-27T13:42:23.106Z,14.00
2022-11-27T13:44:25.936Z,14.00
2022-11-27T13:46:31.726Z,13.90
2022-11-27T13:48:35.105Z,13.90
2022-11-27T13:50:43.152Z,14.00
2022-11-27T13:52:50.801Z,13.90
2022-11-27T13:54:55.630Z,13.90
2022-11-27T13:56:57.510Z,13.90
2022-11-27T13:58:59.292Z,13.90
2022-11-27T14:01:12.779Z,13.80
2022-11-27T14:03:22.837Z,13.80
2022-11-27T14:05:35.346Z,13.80
2022-11-27T14:07:45.323Z,13.80
2022-11-27T14:09:52.610Z,13.70
2022-11-27T14:11:54.436Z,13.70
2022-11-27T14:13:56.636Z,13.70
2022-11-27T14:16:01.858Z,13.70
2022-11-27T14:18:07.071Z,13.70
2022-11-27T14:20:17.992Z,13.70
2022-11-27T14:22:31.785Z,13.60
2022-11-27T14:24:33.578Z,13.60
2022-11-27T14:26:35.421Z,13.60
2022-11-27T14:28:37.644Z,13.60
2022-11-27T14:30:41.077Z,13.60
2022-11-27T14:32:42.910Z,13.50
2022-11-27T14:34:45.136Z,13.50
2022-11-27T14:36:51.704Z,13.50
2022-11-27T14:38:53.536Z,13.40
2022-11-27T14:41:07.263Z,13.40
2022-11-27T14:43:15.174Z,13.40
2022-11-27T14:45:18.619Z,13.40
2022-11-27T14:47:22.754Z,13.40
2022-11-27T14:49:25.438Z,13.40
2022-11-27T14:51:28.345Z,13.40
2022-11-27T14:53:30.266Z,13.30
2022-11-27T14:55:34.768Z,13.30
2022-11-27T14:57:36.798Z,13.30
2022-11-27T14:59:40.037Z,13.30
2022-11-27T15:01:42.049Z,13.20
2022-11-27T15:03:43.912Z,13.20
2022-11-27T15:05:57.154Z,13.20
2022-11-27T15:08:00.854Z,13.20
2022-11-27T15:10:04.675Z,13.20
2022-11-27T15:12:18.429Z,13.10
2022-11-27T15:14:20.350Z,13.20
2022-11-27T15:16:24.736Z,13.10
2022-11-27T15:18:27.068Z,13.10
2022-11-27T15:20:37.335Z,13.10
2022-11-27T15:22:39.155Z,13.10
2022-11-27T15:24:41.025Z,13.10
2022-11-27T15:26:45.057Z,13.10
2022-11-27T15:28:54.025Z,13.10
2022-11-27T15:30:56.624Z,13.00
2022-11-27T15:32:58.589Z,13.10
2022-11-27T15:35:00.440Z,13.00
2022-11-27T15:37:06.348Z,13.00
2022-11-27T15:39:22.077Z,13.00
2022-11-27T15:41:25.529Z,13.00
2022-11-27T15:43:27.447Z,13.00
2022-11-27T15:45:31.469Z,13.00
2022-11-27T15:47:37.312Z,13.00
2022-11-27T15:49:39.121Z,13.00
2022-11-27T15:51:41.541Z,12.90
2022-11-27T15:53:43.404Z,12.90
2022-11-27T15:55:45.165Z,12.90
2022-11-27T15:57:47.039Z,12.90
2022-11-27T15:59:48.934Z,12.90
2022-11-27T16:01:51.050Z,12.90
2022-11-27T16:03:52.884Z,12.90
2022-11-27T16:05:54.667Z,12.80
2022-11-27T16:07:57.214Z,12.80
2022-11-27T16:09:59.090Z,12.80
2022-11-27T16:12:00.838Z,12.80
2022-11-27T16:14:02.588Z,12.80
2022-11-27T16:16:05.656Z,12.80
2022-11-27T16:18:07.592Z,12.80
2022-11-27T16:20:09.577Z,12.80
2022-11-27T16:22:11.387Z,12.80
2022-11-27T16:24:14.181Z,12.70
2022-11-27T16:26:16.988Z,12.70
2022-11-27T16:28:18.814Z,12.70
2022-11-27T16:30:21.807Z,12.70
2022-11-27T16:32:23.799Z,12.70
2022-11-27T16:34:26.530Z,12.70
2022-11-27T16:36:28.711Z,12.70
2022-11-27T16:38:31.020Z,12.70
2022-11-27T16:40:34.958Z,12.70
2022-11-27T16:42:37.702Z,12.70
2022-11-27T16:44:40.410Z,12.70
2022-11-27T16:46:44.300Z,12.70
2022-11-27T16:48:47.226Z,12.70
2022-11-27T16:50:49.298Z,12.60
2022-11-27T16:52:54.451Z,12.60
2022-11-27T16:54:58.645Z,12.60
2022-11-27T16:57:05.947Z,12.60
2022-11-27T16:59:18.060Z,12.60
2022-11-27T17:01:24.341Z,12.60
2022-11-27T17:03:26.386Z,12.60
2022-11-27T17:05:28.336Z,12.60
2022-11-27T17:07:30.563Z,12.60
2022-11-27T17:09:32.698Z,12.60
2022-11-27T17:11:36.332Z,12.60
2022-11-27T17:13:39.062Z,12.60
2022-11-27T17:15:41.060Z,12.60
2022-11-27T17:17:44.091Z,12.60
2022-11-27T17:19:53.117Z,12.50
2022-11-27T17:21:55.166Z,12.60
2022-11-27T17:23:58.620Z,12.50
2022-11-27T17:26:11.223Z,12.50
2022-11-27T17:28:13.113Z,12.50
2022-11-27T17:30:15.057Z,12.50
2022-11-27T17:32:18.211Z,12.50
2022-11-27T17:34:21.010Z,12.50
2022-11-27T17:36:23.562Z,12.50
2022-11-27T17:38:25.463Z,12.50
2022-11-27T17:40:28.227Z,12.50
2022-11-27T17:42:30.252Z,12.50
2022-11-27T17:44:32.635Z,12.50
2022-11-27T17:46:34.936Z,12.50
2022-11-27T17:48:39.061Z,12.50
2022-11-27T17:50:41.122Z,12.50
2022-11-27T17:52:42.934Z,12.50
2022-11-27T17:54:44.931Z,12.50
2022-11-27T17:56:51.405Z,12.40
2022-11-27T17:58:53.954Z,12.40
2022-11-27T18:00:55.846Z,12.40
2022-11-27T18:02:57.862Z,12.40
2022-11-27T18:05:00.050Z,12.40
2022-11-27T18:07:02.111Z,12.40
2022-11-27T18:09:07.108Z,12.40
2022-11-27T18:11:12.534Z,12.40
2022-11-27T18:13:14.451Z,12.40
2022-11-27T18:15:16.628Z,12.40
2022-11-27T18:17:20.797Z,12.40
2022-11-27T18:19:25.769Z,12.40
2022-11-27T18:21:28.666Z,12.40
2022-11-27T18:23:30.527Z,12.40
2022-11-27T18:25:32.382Z,12.40
2022-11-27T18:27:34.323Z,12.40
2022-11-27T18:29:37.389Z,12.40
2022-11-27T18:31:41.311Z,12.40
2022-11-27T18:33:43.501Z,12.40
2022-11-27T18:35:45.705Z,12.40
2022-11-27T18:37:47.414Z,12.40
2022-11-27T18:39:49.172Z,12.40
2022-11-27T18:41:51.123Z,12.40
2022-11-27T18:43:52.911Z,12.40
2022-11-27T18:45:54.781Z,12.40
2022-11-27T18:47:57.262Z,12.40
2022-11-27T18:50:01.440Z,12.40
2022-11-27T18:52:04.816Z,12.30
2022-11-27T18:54:06.593Z,12.30
2022-11-27T18:56:12.788Z,12.30
2022-11-27T18:58:14.590Z,12.30
2022-11-27T19:00:19.592Z,12.30
2022-11-27T19:02:21.524Z,12.30
2022-11-27T19:04:23.415Z,12.30
2022-11-27T19:06:26.315Z,12.30
2022-11-27T19:08:29.166Z,12.30
2022-11-27T19:10:32.442Z,12.30
2022-11-27T19:12:34.240Z,12.30
2022-11-27T19:14:36.892Z,12.30
2022-11-27T19:16:43.916Z,12.30
2022-11-27T19:18:46.214Z,12.30
2022-11-27T19:20:48.183Z,12.30
2022-11-27T19:22:50.744Z,12.30
2022-11-27T19:24:52.672Z,12.30
2022-11-27T19:26:54.614Z,12.30
2022-11-27T19:28:57.280Z,12.30
2022-11-27T19:31:02.305Z,12.30
2022-11-27T19:33:05.613Z,12.30
2022-11-27T19:35:11.513Z,12.30
2022-11-27T19:37:13.410Z,12.30
2022-11-27T19:39:15.459Z,12.30
2022-11-27T19:41:18.233Z,12.30
2022-11-27T19:43:20.025Z,12.30
2022-11-27T19:45:24.440Z,12.30
2022-11-27T19:47:26.142Z,12.30
2022-11-27T19:49:27.862Z,12.30
2022-11-27T19:51:32.330Z,12.30
2022-11-27T19:53:34.422Z,12.30
2022-11-27T19:55:37.464Z,12.30
2022-11-27T19:57:39.381Z,12.30
2022-11-27T19:59:41.697Z,12.30
2022-11-27T20:01:44.326Z,12.30
2022-11-27T20:03:46.481Z,12.30
2022-11-27T20:05:48.305Z,12.30
2022-11-27T20:07:50.282Z,12.30
2022-11-27T20:09:52.837Z,12.30
2022-11-27T20:11:55.128Z,12.20
2022-11-27T20:13:58.828Z,12.30
2022-11-27T20:16:01.006Z,12.20
2022-11-27T20:18:02.829Z,12.20
2022-11-27T20:20:05.836Z,12.20
2022-11-27T20:22:07.762Z,12.20
2022-11-27T20:24:09.591Z,12.20
2022-11-27T20:26:12.917Z,12.20
2022-11-27T20:28:18.043Z,12.20
2022-11-27T20:30:22.672Z,12.20
2022-11-27T20:32:25.375Z,12.20
2022-11-27T20:34:28.355Z,12.20
2022-11-27T20:36:31.149Z,12.20
2022-11-27T20:38:33.162Z,12.20
2022-11-27T20:40:35.213Z,12.10
2022-11-27T20:42:37.074Z,12.10
2022-11-27T20:44:39.646Z,12.10
2022-11-27T20:46:44.687Z,12.10
2022-11-27T20:48:50.365Z,12.10
2022-11-27T20:50:53.046Z,12.10
2022-11-27T20:52:54.793Z,12.10
2022-11-27T20:54:57.840Z,12.10
2022-11-27T20:57:00.488Z,12.10
2022-11-27T20:59:02.335Z,12.10
2022-11-27T21:01:16.608Z,12.00
2022-11-27T21:03:19.027Z,12.00
2022-11-27T21:05:20.823Z,12.00
2022-11-27T21:07:22.841Z,12.00
2022-11-27T21:09:25.671Z,12.00
2022-11-27T21:11:28.343Z,12.00
2022-11-27T21:13:30.711Z,12.00
2022-11-27T21:15:33.297Z,12.00
2022-11-27T21:17:36.486Z,12.00
2022-11-27T21:19:38.490Z,12.00
2022-11-27T21:21:40.594Z,12.00
2022-11-27T21:23:42.653Z,12.00
2022-11-27T21:25:46.817Z,12.00
2022-11-27T21:27:48.682Z,12.00
2022-11-27T21:29:50.509Z,12.00
2022-11-27T21:31:53.246Z,12.00
2022-11-27T21:33:56.233Z,12.00
2022-11-27T21:35:57.968Z,12.00
2022-11-27T21:37:59.750Z,12.00
2022-11-27T21:40:01.922Z,12.00
2022-11-27T21:42:03.802Z,12.00
2022-11-27T21:44:06.088Z,12.00
2022-11-27T21:46:09.079Z,12.00
2022-11-27T21:48:14.325Z,12.00
2022-11-27T21:50:16.939Z,12.00
2022-11-27T21:52:18.718Z,12.00
2022-11-27T21:54:20.560Z,12.00
2022-11-27T21:56:23.509Z,12.00
2022-11-27T21:58:25.338Z,12.00
2022-11-27T22:00:27.134Z,12.00
2022-11-27T22:02:28.966Z,12.00
2022-11-27T22:04:30.813Z,12.00
2022-11-27T22:06:36.446Z,12.00
2022-11-27T22:08:38.668Z,12.00
2022-11-27T22:10:40.701Z,12.00
2022-11-27T22:12:42.494Z,12.00
2022-11-27T22:14:44.530Z,12.00
2022-11-27T22:16:47.277Z,12.00
2022-11-27T22:18:50.421Z,12.00
2022-11-27T22:20:52.222Z,12.00
2022-11-27T22:22:54.832Z,12.00
2022-11-27T22:24:56.639Z,12.00
2022-11-27T22:26:58.339Z,12.00
2022-11-27T22:29:00.204Z,11.90
2022-11-27T22:31:12.886Z,11.90
2022-11-27T22:33:14.901Z,11.90
2022-11-27T22:35:16.736Z,11.90
2022-11-27T22:37:18.634Z,11.90
2022-11-27T22:39:20.406Z,11.90
2022-11-27T22:41:23.631Z,11.90
2022-11-27T22:43:25.926Z,11.90
2022-11-27T22:45:27.813Z,11.90
2022-11-27T22:47:29.614Z,11.90
2022-11-27T22:49:31.392Z,11.90
2022-11-27T22:51:34.494Z,11.90
2022-11-27T22:53:36.403Z,11.90
2022-11-27T22:55:38.377Z,11.80
2022-11-27T22:57:40.120Z,11.80
2022-11-27T22:59:41.949Z,11.80
2022-11-27T23:01:44.214Z,11.90
2022-11-27T23:03:46.370Z,11.80
2022-11-27T23:05:48.319Z,11.80
2022-11-27T23:07:50.229Z,11.80
2022-11-27T23:09:52.170Z,11.80
2022-11-27T23:11:54.040Z,11.80
2022-11-27T23:13:56.744Z,11.80
2022-11-27T23:16:00.705Z,11.80
2022-11-27T23:18:02.341Z,11.80
2022-11-27T23:20:04.214Z,11.80
2022-11-27T23:22:05.946Z,11.70
2022-11-27T23:24:09.869Z,11.70
2022-11-27T23:26:18.093Z,11.80
2022-11-27T23:28:20.287Z,11.70
2022-11-27T23:30:22.062Z,11.70
2022-11-27T23:32:23.804Z,11.70
2022-11-27T23:34:25.551Z,11.70
2022-11-27T23:36:27.472Z,11.70
2022-11-27T23:38:29.511Z,11.70
2022-11-27T23:40:31.168Z,11.70
2022-11-27T23:42:33.946Z,11.60
2022-11-27T23:44:36.220Z,11.60
2022-11-27T23:46:37.951Z,11.70
2022-11-27T23:48:39.681Z,11.60
2022-11-27T23:50:42.298Z,11.60
2022-11-27T23:52:44.037Z,11.60
2022-11-27T23:54:45.777Z,11.60
2022-11-27T23:56:50.425Z,11.60
2022-11-27T23:58:53.364Z,11.60
